createdAt,value
2022-10-20T00:00:36.264Z,45.75
2022-10-20T00:03:02.544Z,46.25
2022-10-20T00:05:28.796Z,50.13
2022-10-20T00:07:54.987Z,44.10
2022-10-20T00:10:21.166Z,44.63
2022-10-20T00:12:47.351Z,51.15
2022-10-20T00:15:13.556Z,53.60
2022-10-20T00:17:39.745Z,49.53
2022-10-20T00:20:05.964Z,38.97
2022-10-20T00:22:32.358Z,53.70
2022-10-20T00:24:58.646Z,63.15
2022-10-20T00:27:24.840Z,68.40
2022-10-20T00:29:51.029Z,67.40
2022-10-20T00:32:17.545Z,57.65
2022-10-20T00:34:43.718Z,69.63
2022-10-20T00:37:09.953Z,49.85
2022-10-20T00:39:36.134Z,63.90
2022-10-20T00:42:02.321Z,59.90
2022-10-20T00:44:28.509Z,68.90
2022-10-20T00:46:54.823Z,64.57
2022-10-20T00:49:21.009Z,59.10
2022-10-20T00:51:47.214Z,67.03
2022-10-20T00:54:13.408Z,77.05
2022-10-20T00:56:39.981Z,74.40
2022-10-20T00:59:06.182Z,57.10
2022-10-20T01:01:32.480Z,60.78
2022-10-20T01:03:58.703Z,63.80
2022-10-20T01:06:24.906Z,64.93
2022-10-20T01:08:51.222Z,60.70
2022-10-20T01:11:18.154Z,60.00
2022-10-20T01:13:44.344Z,65.30
2022-10-20T01:16:10.546Z,63.40
2022-10-20T01:18:36.722Z,64.75
2022-10-20T01:21:05.026Z,61.42
2022-10-20T01:23:31.210Z,60.80
2022-10-20T01:25:57.414Z,63.65
2022-10-20T01:28:23.751Z,59.15
2022-10-20T01:30:49.960Z,57.13
2022-10-20T01:33:16.180Z,53.08
2022-10-20T01:35:42.507Z,59.10
2022-10-20T01:38:08.692Z,57.40
2022-10-20T01:40:34.999Z,54.00
2022-10-20T01:43:01.186Z,51.65
2022-10-20T01:45:27.382Z,54.67
2022-10-20T01:47:53.563Z,55.38
2022-10-20T01:50:19.988Z,52.92
2022-10-20T01:52:46.187Z,53.58
2022-10-20T01:55:12.455Z,53.67
2022-10-20T01:57:38.667Z,63.63
2022-10-20T02:00:04.868Z,59.90
2022-10-20T02:02:31.046Z,59.60
2022-10-20T02:04:57.233Z,61.03
2022-10-20T02:07:23.417Z,58.75
2022-10-20T02:09:49.650Z,60.92
2022-10-20T02:12:15.859Z,52.53
2022-10-20T02:14:42.050Z,44.85
2022-10-20T02:17:08.239Z,44.65
2022-10-20T02:19:34.430Z,44.97
2022-10-20T02:22:00.617Z,43.50
2022-10-20T02:24:27.056Z,45.60
2022-10-20T02:26:53.235Z,48.75
2022-10-20T02:29:22.612Z,53.17
2022-10-20T02:31:48.797Z,54.80
2022-10-20T02:34:15.020Z,53.47
2022-10-20T02:36:41.206Z,51.85
2022-10-20T02:39:07.442Z,51.75
2022-10-20T02:41:33.666Z,52.67
2022-10-20T02:43:59.878Z,53.50
2022-10-20T02:46:26.083Z,57.45
2022-10-20T02:48:52.268Z,69.47
2022-10-20T02:51:18.670Z,68.10
2022-10-20T02:53:44.858Z,70.72
2022-10-20T02:56:11.057Z,76.50
2022-10-20T02:58:37.250Z,70.00
2022-10-20T03:01:03.434Z,68.95
2022-10-20T03:03:29.638Z,63.72
2022-10-20T03:05:55.835Z,69.35
2022-10-20T03:08:22.356Z,78.90
2022-10-20T03:10:48.559Z,63.45
2022-10-20T03:13:15.559Z,81.75
2022-10-20T03:15:41.769Z,80.07
2022-10-20T03:18:07.964Z,68.55
2022-10-20T03:20:34.200Z,72.20
2022-10-20T03:23:00.387Z,59.38
2022-10-20T03:25:26.594Z,67.13
2022-10-20T03:27:52.770Z,54.63
2022-10-20T03:30:18.964Z,52.30
2022-10-20T03:32:45.155Z,72.55
2022-10-20T03:35:11.347Z,73.93
2022-10-20T03:37:37.540Z,68.10
2022-10-20T03:40:03.740Z,74.25
2022-10-20T03:42:29.927Z,63.50
2022-10-20T03:44:56.102Z,73.00
2022-10-20T03:47:22.301Z,86.63
2022-10-20T03:49:48.498Z,87.00
2022-10-20T03:52:14.681Z,95.55
2022-10-20T03:54:40.966Z,52.42
2022-10-20T03:57:08.034Z,64.32
2022-10-20T03:59:34.263Z,67.90
2022-10-20T04:02:00.550Z,74.35
2022-10-20T04:04:26.805Z,66.53
2022-10-20T04:06:52.983Z,75.20
2022-10-20T04:09:19.198Z,72.57
2022-10-20T04:11:45.403Z,64.28
2022-10-20T04:14:11.635Z,60.67
2022-10-20T04:16:37.872Z,61.08
2022-10-20T04:19:04.671Z,60.25
2022-10-20T04:21:30.871Z,63.95
2022-10-20T04:23:57.074Z,54.03
2022-10-20T04:26:23.267Z,44.40
2022-10-20T04:28:49.471Z,46.55
2022-10-20T04:31:15.650Z,48.53
2022-10-20T04:33:41.855Z,45.42
2022-10-20T04:36:08.063Z,54.17
2022-10-20T04:38:34.385Z,41.58
2022-10-20T04:41:03.364Z,66.18
2022-10-20T04:43:30.502Z,63.90
2022-10-20T04:45:59.909Z,56.97
2022-10-20T04:48:28.816Z,57.42
2022-10-20T04:50:54.987Z,41.22
2022-10-20T04:53:21.158Z,59.53
2022-10-20T04:55:47.345Z,55.17
2022-10-20T04:58:13.529Z,55.05
2022-10-20T05:00:39.710Z,53.80
2022-10-20T05:03:05.915Z,66.38
2022-10-20T05:05:32.115Z,54.63
2022-10-20T05:07:58.301Z,49.55
2022-10-20T05:10:24.507Z,55.17
2022-10-20T05:12:50.710Z,50.60
2022-10-20T05:15:16.932Z,48.70
2022-10-20T05:17:43.114Z,47.83
2022-10-20T05:20:09.302Z,48.85
2022-10-20T05:22:35.793Z,45.28
2022-10-20T05:25:24.554Z,47.10
2022-10-20T05:27:48.433Z,49.65
2022-10-20T05:30:14.637Z,54.45
2022-10-20T05:32:40.818Z,51.50
2022-10-20T05:35:07.008Z,54.15
2022-10-20T05:37:33.226Z,49.28
2022-10-20T05:40:02.692Z,45.53
2022-10-20T05:42:28.883Z,49.55
2022-10-20T05:44:56.124Z,47.03
2022-10-20T05:47:22.321Z,48.27
2022-10-20T05:49:48.513Z,52.20
2022-10-20T05:52:14.820Z,50.33
2022-10-20T05:54:41.301Z,48.38
2022-10-20T05:57:07.493Z,46.20
2022-10-20T05:59:33.684Z,52.00
2022-10-20T06:01:59.899Z,51.05
2022-10-20T06:04:28.041Z,51.53
2022-10-20T06:06:54.352Z,50.50
2022-10-20T06:09:20.533Z,55.85
2022-10-20T06:11:46.748Z,55.95
2022-10-20T06:14:12.959Z,56.45
2022-10-20T06:16:39.232Z,58.20
2022-10-20T06:19:06.614Z,60.97
2022-10-20T06:21:32.941Z,54.30
2022-10-20T06:23:59.523Z,63.88
2022-10-20T06:26:25.775Z,62.42
2022-10-20T06:28:51.964Z,65.90
2022-10-20T06:31:18.171Z,59.45
2022-10-20T06:33:44.350Z,67.53
2022-10-20T06:36:10.667Z,64.72
2022-10-20T06:38:36.914Z,61.58
2022-10-20T06:41:03.119Z,58.95
2022-10-20T06:43:29.311Z,48.85
2022-10-20T06:45:55.647Z,51.58
2022-10-20T06:48:21.898Z,53.28
2022-10-20T06:50:48.087Z,54.20
2022-10-20T06:53:14.335Z,51.28
2022-10-20T06:55:40.728Z,53.97
2022-10-20T06:58:07.019Z,55.70
2022-10-20T07:00:33.398Z,58.50
2022-10-20T07:02:59.676Z,60.35
2022-10-20T07:05:25.943Z,57.75
2022-10-20T07:07:52.208Z,55.92
2022-10-20T07:10:18.472Z,56.65
2022-10-20T07:12:44.755Z,54.38
2022-10-20T07:15:11.014Z,53.97
2022-10-20T07:17:37.265Z,57.00
2022-10-20T07:20:03.521Z,58.60
2022-10-20T07:22:29.832Z,53.55
2022-10-20T07:24:56.089Z,53.33
2022-10-20T07:27:22.335Z,54.25
2022-10-20T07:29:48.583Z,60.20
2022-10-20T07:32:14.906Z,57.50
2022-10-20T07:34:41.171Z,54.97
2022-10-20T07:37:07.414Z,55.70
2022-10-20T07:39:33.677Z,50.53
2022-10-20T07:41:59.931Z,54.50
2022-10-20T07:44:26.208Z,50.45
2022-10-20T07:46:52.506Z,55.53
2022-10-20T07:52:05.026Z,49.42
2022-10-20T07:54:31.790Z,48.55
2022-10-20T07:56:58.050Z,53.13
2022-10-20T07:59:24.414Z,51.67
2022-10-20T08:01:52.480Z,60.83
2022-10-20T08:04:19.956Z,64.05
2022-10-20T08:06:47.167Z,61.22
2022-10-20T08:09:13.425Z,59.42
2022-10-20T08:11:39.679Z,57.05
2022-10-20T08:14:06.039Z,47.83
2022-10-20T08:16:50.130Z,51.45
2022-10-20T08:19:17.960Z,48.78
2022-10-20T08:21:44.221Z,53.00
2022-10-20T08:24:10.721Z,77.00
2022-10-20T08:26:36.981Z,60.35
2022-10-20T08:29:03.302Z,52.05
2022-10-20T08:31:29.545Z,51.60
2022-10-20T08:33:56.802Z,54.25
2022-10-20T08:36:23.069Z,55.72
2022-10-20T08:38:49.364Z,55.80
2022-10-20T08:41:15.621Z,64.82
2022-10-20T08:43:42.014Z,75.43
2022-10-20T08:46:08.327Z,60.33
2022-10-20T08:48:34.587Z,52.10
2022-10-20T08:51:00.843Z,52.85
2022-10-20T08:53:27.140Z,54.90
2022-10-20T08:55:53.396Z,47.15
2022-10-20T08:58:19.647Z,58.17
2022-10-20T09:00:45.989Z,47.97
2022-10-20T09:03:12.301Z,51.42
2022-10-20T09:05:38.546Z,45.53
2022-10-20T09:08:04.800Z,46.45
2022-10-20T09:10:31.131Z,67.80
2022-10-20T09:12:57.434Z,63.25
2022-10-20T09:15:23.750Z,61.22
2022-10-20T09:17:49.997Z,40.92
2022-10-20T09:20:16.255Z,44.00
2022-10-20T09:22:42.517Z,40.97
2022-10-20T09:25:08.765Z,49.78
2022-10-20T09:27:35.240Z,50.00
2022-10-20T09:30:01.821Z,50.97
2022-10-20T09:32:45.601Z,44.97
2022-10-20T09:35:13.097Z,42.67
2022-10-20T09:37:39.367Z,51.42
2022-10-20T09:40:05.618Z,50.63
2022-10-20T09:42:31.883Z,53.22
2022-10-20T09:44:58.132Z,63.17
2022-10-20T09:47:24.436Z,63.03
2022-10-20T09:49:50.689Z,61.55
2022-10-20T09:52:17.024Z,62.28
2022-10-20T09:54:43.273Z,46.83
2022-10-20T09:57:09.556Z,54.63
2022-10-20T09:59:35.843Z,57.03
2022-10-20T10:02:02.087Z,48.88
2022-10-20T10:04:28.343Z,56.65
2022-10-20T10:06:54.582Z,71.00
2022-10-20T10:09:20.878Z,58.88
2022-10-20T10:11:47.149Z,46.50
2022-10-20T10:14:13.397Z,49.55
2022-10-20T10:16:40.538Z,48.83
2022-10-20T10:19:06.836Z,47.17
2022-10-20T10:21:33.149Z,46.60
2022-10-20T10:23:59.422Z,66.03
2022-10-20T10:26:25.666Z,67.65
2022-10-20T10:28:51.944Z,51.00
2022-10-20T10:31:18.194Z,46.97
2022-10-20T10:33:44.483Z,50.97
2022-10-20T10:36:10.736Z,49.60
2022-10-20T10:38:37.009Z,49.85
2022-10-20T10:41:03.272Z,66.00
2022-10-20T10:43:29.850Z,73.03
2022-10-20T10:45:56.272Z,70.13
2022-10-20T10:48:22.519Z,65.43
2022-10-20T10:50:48.774Z,69.15
2022-10-20T10:53:15.031Z,54.65
2022-10-20T10:55:48.869Z,57.97
2022-10-20T10:58:15.729Z,58.97
2022-10-20T11:00:42.129Z,54.33
2022-10-20T11:03:08.415Z,48.95
2022-10-20T11:05:34.729Z,48.88
2022-10-20T11:08:01.214Z,44.63
2022-10-20T11:10:27.597Z,45.30
2022-10-20T11:12:53.864Z,40.00
2022-10-20T11:15:20.123Z,44.25
2022-10-20T11:17:46.376Z,44.03
2022-10-20T11:20:12.771Z,43.83
2022-10-20T11:22:39.083Z,50.63
2022-10-20T11:25:05.342Z,54.38
2022-10-20T11:27:31.632Z,48.38
2022-10-20T11:30:04.352Z,49.22
2022-10-20T11:32:30.693Z,52.28
2022-10-20T11:34:57.682Z,51.83
2022-10-20T11:37:23.943Z,47.47
2022-10-20T11:39:50.219Z,48.78
2022-10-20T11:42:16.481Z,55.03
2022-10-20T11:44:42.760Z,48.70
2022-10-20T11:47:09.019Z,47.00
2022-10-20T11:49:35.396Z,49.97
2022-10-20T11:52:01.677Z,47.72
2022-10-20T11:54:27.940Z,47.70
2022-10-20T11:56:54.203Z,48.55
2022-10-20T11:59:20.597Z,52.00
2022-10-20T12:01:46.902Z,51.88
2022-10-20T12:04:13.195Z,50.83
2022-10-20T12:06:39.587Z,51.80
2022-10-20T12:09:05.890Z,53.63
2022-10-20T12:11:32.156Z,68.03
2022-10-20T12:13:58.688Z,57.75
2022-10-20T12:16:24.941Z,63.47
2022-10-20T12:18:51.239Z,61.95
2022-10-20T12:21:17.521Z,63.55
2022-10-20T12:23:44.064Z,65.30
2022-10-20T12:26:10.329Z,61.17
2022-10-20T12:28:36.601Z,75.75
2022-10-20T12:31:02.870Z,87.38
2022-10-20T12:33:29.134Z,80.38
2022-10-20T12:35:55.392Z,80.03
2022-10-20T12:41:12.183Z,68.57
2022-10-20T12:43:38.461Z,72.10
2022-10-20T12:46:05.964Z,74.45
2022-10-20T12:48:32.316Z,72.00
2022-10-20T12:50:58.571Z,73.07
2022-10-20T12:53:26.584Z,77.55
2022-10-20T12:58:30.810Z,63.03
2022-10-20T13:01:00.333Z,54.88
2022-10-20T13:03:26.625Z,61.88
2022-10-20T13:05:52.925Z,70.28
2022-10-20T13:08:19.188Z,66.70
2022-10-20T13:10:45.449Z,62.38
2022-10-20T13:13:11.701Z,69.28
2022-10-20T13:15:38.744Z,61.47
2022-10-20T13:18:05.228Z,63.72
2022-10-20T13:20:31.474Z,64.35
2022-10-20T13:22:57.723Z,66.65
2022-10-20T13:25:24.005Z,65.63
2022-10-20T13:27:50.361Z,68.05
2022-10-20T13:30:16.636Z,64.80
2022-10-20T13:32:53.902Z,72.50
2022-10-20T13:35:29.203Z,64.80
2022-10-20T13:37:55.945Z,58.83
2022-10-20T13:40:23.919Z,54.83
2022-10-20T13:42:50.574Z,54.08
2022-10-20T13:45:16.833Z,52.75
2022-10-20T13:47:43.075Z,49.65
2022-10-20T13:50:09.365Z,51.50
2022-10-20T13:52:35.967Z,58.25
2022-10-20T13:55:02.448Z,55.67
2022-10-20T13:57:29.001Z,65.53
2022-10-20T13:59:57.387Z,57.45
2022-10-20T14:02:23.685Z,54.00
2022-10-20T14:04:49.943Z,49.13
2022-10-20T14:07:17.477Z,47.42
2022-10-20T14:09:46.802Z,47.40
2022-10-20T14:12:14.699Z,50.00
2022-10-20T14:14:40.954Z,47.75
2022-10-20T14:17:07.247Z,999.90
2022-10-20T14:19:33.625Z,999.90
2022-10-20T14:21:59.930Z,999.90
2022-10-20T14:24:26.254Z,999.90
2022-10-20T14:26:52.571Z,999.90
2022-10-20T14:29:18.900Z,763.50
2022-10-20T14:31:45.154Z,999.90
2022-10-20T14:34:11.407Z,999.90
2022-10-20T14:36:40.040Z,53.35
2022-10-20T14:39:09.648Z,48.78
2022-10-20T14:41:35.914Z,53.53
2022-10-20T14:44:06.430Z,56.70
2022-10-20T14:46:34.193Z,60.25
2022-10-20T14:49:00.438Z,60.95
2022-10-20T14:51:26.682Z,73.70
2022-10-20T14:53:52.935Z,74.30
2022-10-20T14:56:22.157Z,73.57
2022-10-20T14:58:49.204Z,75.32
2022-10-20T15:01:15.494Z,73.25
2022-10-20T15:03:41.883Z,71.78
2022-10-20T15:06:08.319Z,82.72
2022-10-20T15:08:34.587Z,69.60
2022-10-20T15:11:03.975Z,77.38
2022-10-20T15:13:30.223Z,70.13
2022-10-20T15:15:56.519Z,49.90
2022-10-20T15:18:23.939Z,50.38
2022-10-20T15:20:50.220Z,52.45
2022-10-20T15:23:16.459Z,62.78
2022-10-20T15:25:43.706Z,61.35
2022-10-20T15:28:09.965Z,66.53
2022-10-20T15:30:36.258Z,49.88
2022-10-20T15:33:02.512Z,53.13
2022-10-20T15:35:30.890Z,59.00
2022-10-20T15:37:57.156Z,56.88
2022-10-20T15:40:23.424Z,53.70
2022-10-20T15:42:49.668Z,51.83
2022-10-20T15:45:15.917Z,57.08
2022-10-20T15:47:42.210Z,65.90
2022-10-20T15:50:08.455Z,73.95
2022-10-20T15:52:37.033Z,72.82
2022-10-20T15:55:03.564Z,53.03
2022-10-20T15:57:30.564Z,48.55
2022-10-20T15:59:56.825Z,61.70
2022-10-20T16:02:23.145Z,58.38
2022-10-20T16:04:49.409Z,59.05
2022-10-20T16:07:15.685Z,54.92
2022-10-20T16:09:41.948Z,55.80
2022-10-20T16:12:08.196Z,50.15
2022-10-20T16:14:34.622Z,58.53
2022-10-20T16:17:01.066Z,58.92
2022-10-20T16:19:27.326Z,58.70
2022-10-20T16:21:53.591Z,53.22
2022-10-20T16:24:19.851Z,49.33
2022-10-20T16:26:46.105Z,51.40
2022-10-20T16:29:12.368Z,52.55
2022-10-20T16:31:38.653Z,53.92
2022-10-20T16:34:04.911Z,58.60
2022-10-20T16:36:34.348Z,58.80
2022-10-20T16:39:00.854Z,61.83
2022-10-20T16:41:27.156Z,64.18
2022-10-20T16:43:55.420Z,64.05
2022-10-20T16:46:25.091Z,63.53
2022-10-20T16:48:51.360Z,53.22
2022-10-20T16:51:17.659Z,49.50
2022-10-20T16:53:43.953Z,53.47
2022-10-20T16:56:10.641Z,52.38
2022-10-20T16:58:38.347Z,51.28
2022-10-20T17:01:06.043Z,50.30
2022-10-20T17:03:32.426Z,50.40
2022-10-20T17:05:58.729Z,54.42
2022-10-20T17:08:25.851Z,48.40
2022-10-20T17:10:53.369Z,47.93
2022-10-20T17:13:19.618Z,44.65
2022-10-20T17:15:45.882Z,46.17
2022-10-20T17:18:12.180Z,43.95
2022-10-20T17:20:38.430Z,43.75
2022-10-20T17:23:04.873Z,43.47
2022-10-20T17:25:31.123Z,45.72
2022-10-20T17:27:58.298Z,45.28
2022-10-20T17:30:26.447Z,52.70
2022-10-20T17:35:18.885Z,44.22
2022-10-20T17:37:45.145Z,46.88
2022-10-20T17:40:11.487Z,43.38
2022-10-20T17:42:38.113Z,43.55
2022-10-20T17:45:04.588Z,44.50
2022-10-20T17:47:30.892Z,45.15
2022-10-20T17:49:57.177Z,44.88
2022-10-20T17:52:23.459Z,46.63
2022-10-20T17:54:49.736Z,45.08
2022-10-20T17:57:15.980Z,45.00
2022-10-20T17:59:52.493Z,46.95
2022-10-20T18:02:23.491Z,43.10
2022-10-20T18:04:49.921Z,42.97
2022-10-20T18:07:16.180Z,45.25
2022-10-20T18:09:43.331Z,41.25
2022-10-20T18:12:09.514Z,43.00
2022-10-20T18:14:35.778Z,43.88
2022-10-20T18:17:02.034Z,42.67
2022-10-20T18:19:28.394Z,41.85
2022-10-20T18:21:54.689Z,40.58
2022-10-20T18:24:20.942Z,42.10
2022-10-20T18:26:47.403Z,42.83
2022-10-20T18:29:13.664Z,42.35
2022-10-20T18:31:39.914Z,42.25
2022-10-20T18:34:07.146Z,46.65
2022-10-20T18:36:33.632Z,41.28
2022-10-20T18:41:50.218Z,39.65
2022-10-20T18:44:16.630Z,43.60
2022-10-20T18:46:42.996Z,46.60
2022-10-20T18:49:09.238Z,42.28
2022-10-20T18:51:35.676Z,43.58
2022-10-20T18:54:01.923Z,52.13
2022-10-20T18:56:28.170Z,51.60
2022-10-20T18:58:54.410Z,51.95
2022-10-20T19:01:20.737Z,46.80
2022-10-20T19:03:47.097Z,46.53
2022-10-20T19:06:13.403Z,49.38
2022-10-20T19:08:39.761Z,53.58
2022-10-20T19:11:06.047Z,57.97
2022-10-20T19:13:32.504Z,56.67
2022-10-20T19:15:58.774Z,65.15
2022-10-20T19:18:25.030Z,60.15
2022-10-20T19:20:53.327Z,61.95
2022-10-20T19:23:19.580Z,51.85
2022-10-20T19:25:47.267Z,51.92
2022-10-20T19:28:13.563Z,51.95
2022-10-20T19:30:39.831Z,46.35
2022-10-20T19:33:06.094Z,51.60
2022-10-20T19:35:32.367Z,48.83
2022-10-20T19:37:58.620Z,51.70
2022-10-20T19:40:27.645Z,49.97
2022-10-20T19:42:54.758Z,46.10
2022-10-20T19:45:21.002Z,46.33
2022-10-20T19:47:47.264Z,53.05
2022-10-20T19:50:13.518Z,56.38
2022-10-20T19:52:40.016Z,47.53
2022-10-20T19:55:06.431Z,56.28
2022-10-20T19:57:32.860Z,51.15
2022-10-20T19:59:59.356Z,50.00
2022-10-20T20:02:25.611Z,49.67
2022-10-20T20:04:51.889Z,53.78
2022-10-20T20:09:51.660Z,57.80
2022-10-20T20:12:18.227Z,53.28
2022-10-20T20:14:44.642Z,57.78
2022-10-20T20:17:11.222Z,61.58
2022-10-20T20:19:37.595Z,63.38
2022-10-20T20:22:03.910Z,54.42
2022-10-20T20:24:30.169Z,48.70
2022-10-20T20:26:58.243Z,50.10
2022-10-20T20:31:50.741Z,51.38
2022-10-20T20:34:17.017Z,52.55
2022-10-20T20:36:43.283Z,46.72
2022-10-20T20:39:09.542Z,52.92
2022-10-20T20:41:37.385Z,51.25
2022-10-20T20:44:07.930Z,48.50
2022-10-20T20:46:36.011Z,53.35
2022-10-20T20:49:02.319Z,50.25
2022-10-20T20:51:33.843Z,51.17
2022-10-20T20:54:00.484Z,52.65
2022-10-20T20:56:27.884Z,46.42
2022-10-20T20:58:55.271Z,44.42
2022-10-20T21:01:21.947Z,53.20
2022-10-20T21:03:48.327Z,47.38
2022-10-20T21:06:14.595Z,45.95
2022-10-20T21:08:40.927Z,44.05
2022-10-20T21:11:07.200Z,46.45
2022-10-20T21:13:33.458Z,45.17
2022-10-20T21:15:59.705Z,46.95
2022-10-20T21:18:25.954Z,48.47
2022-10-20T21:20:52.250Z,46.58
2022-10-20T21:23:18.786Z,49.55
2022-10-20T21:25:45.026Z,50.85
2022-10-20T21:28:11.449Z,45.78
2022-10-20T21:30:37.705Z,50.20
2022-10-20T21:33:03.968Z,47.75
2022-10-20T21:35:30.235Z,53.28
2022-10-20T21:37:56.487Z,48.97
2022-10-20T21:40:22.756Z,49.50
2022-10-20T21:42:49.011Z,50.60
2022-10-20T21:45:18.255Z,53.10
2022-10-20T21:47:45.410Z,50.42
2022-10-20T21:50:11.665Z,53.80
2022-10-20T21:52:39.168Z,47.15
2022-10-20T21:55:05.631Z,49.03
2022-10-20T21:57:31.882Z,47.05
2022-10-20T21:59:58.126Z,47.10
2022-10-20T22:02:24.382Z,45.53
2022-10-20T22:04:50.626Z,46.90
2022-10-20T22:07:16.882Z,49.17
2022-10-20T22:09:43.150Z,44.95
2022-10-20T22:12:09.398Z,48.38
2022-10-20T22:14:35.687Z,46.35
2022-10-20T22:17:02.014Z,45.97
2022-10-20T22:19:28.267Z,44.42
2022-10-20T22:21:54.729Z,45.90
2022-10-20T22:24:21.063Z,45.00
2022-10-20T22:26:47.325Z,47.40
2022-10-20T22:29:13.595Z,45.10
2022-10-20T22:31:39.858Z,45.65
2022-10-20T22:34:06.311Z,48.60
2022-10-20T22:36:32.558Z,47.22
2022-10-20T22:39:00.378Z,46.10
2022-10-20T22:41:26.670Z,46.38
2022-10-20T22:43:52.927Z,44.60
2022-10-20T22:46:19.191Z,49.72
2022-10-20T22:48:46.258Z,47.25
2022-10-20T22:51:12.526Z,48.50
2022-10-20T22:53:38.785Z,48.35
2022-10-20T22:56:05.450Z,48.33
2022-10-20T22:58:31.690Z,48.00
2022-10-20T23:00:58.022Z,46.42
2022-10-20T23:03:24.299Z,43.13
2022-10-20T23:05:50.581Z,43.17
2022-10-20T23:08:16.834Z,47.00
2022-10-20T23:10:43.083Z,44.55
2022-10-20T23:13:09.345Z,45.40
2022-10-20T23:15:35.608Z,45.05
2022-10-20T23:18:01.908Z,48.20
2022-10-20T23:20:28.160Z,44.30
2022-10-20T23:22:54.457Z,46.03
2022-10-20T23:25:20.716Z,49.13
2022-10-20T23:27:46.972Z,47.70
2022-10-20T23:30:13.231Z,47.28
2022-10-20T23:32:39.472Z,49.45
2022-10-20T23:35:05.733Z,46.50
2022-10-20T23:37:32.057Z,51.30
2022-10-20T23:39:58.384Z,47.42
2022-10-20T23:42:24.648Z,49.40
2022-10-20T23:44:50.906Z,47.60
2022-10-20T23:47:17.157Z,54.95
2022-10-20T23:49:43.407Z,47.33
2022-10-20T23:52:09.665Z,50.38
2022-10-20T23:54:35.914Z,46.63
2022-10-20T23:57:02.566Z,47.45
2022-10-20T23:59:28.818Z,52.63
